Time;durP1;ratioP1;P1;durP2;ratioP2;P2;SDS_P1;SDS_P2;PMS_P1;PMS_P2;Temp;Humidity;BMP_temperature;BMP_pressure;BME280_temperature;BME280_humidity;BME280_pressure;Samples;Min_cycle;Max_cycle;Signal;HPM_P1;HPM_P2
2024/03/21 00:00:21;;;;;;;;;23.75;22.00;;;;;;;;5047724;28;10773;-81
2024/03/21 00:02:48;;;;;;;;;26.00;26.00;;;;;;;;5048550;28;10734;-80
2024/03/21 00:05:15;;;;;;;;;29.75;28.25;;;;;;;;5048572;28;10671;-81
2024/03/21 00:07:45;;;;;;;;;30.25;26.00;;;;;;;;5050486;28;10745;-81
2024/03/21 00:10:12;;;;;;;;;25.25;25.25;;;;;;;;5071659;28;10815;-80
2024/03/21 00:12:49;;;;;;;;;30.25;29.50;;;;;;;;5062131;28;10751;-81
2024/03/21 00:15:17;;;;;;;;;25.00;24.25;;;;;;;;5051402;28;10904;-81
2024/03/21 00:17:45;;;;;;;;;33.75;32.75;;;;;;;;5051981;28;10872;-81
2024/03/21 00:20:12;;;;;;;;;40.00;35.25;;;;;;;;5053813;28;10745;-82
2024/03/21 00:22:40;;;;;;;;;28.50;28.50;;;;;;;;5055929;28;10892;-80
2024/03/21 00:25:08;;;;;;;;;27.75;27.75;;;;;;;;5056218;28;10837;-80
2024/03/21 00:27:36;;;;;;;;;32.50;31.50;;;;;;;;5053887;28;10683;-81
2024/03/21 00:30:04;;;;;;;;;31.50;30.25;;;;;;;;5051579;28;10609;-80
2024/03/21 00:32:36;;;;;;;;;28.75;25.75;;;;;;;;5051726;28;10438;-80
2024/03/21 00:35:02;;;;;;;;;33.00;31.00;;;;;;;;5051736;28;10437;-80
2024/03/21 00:37:29;;;;;;;;;29.50;27.75;;;;;;;;5051553;28;10731;-80
2024/03/21 00:39:56;;;;;;;;;28.50;26.00;;;;;;;;5050256;28;10536;-81
2024/03/21 00:42:23;;;;;;;;;30.50;28.50;;;;;;;;5052197;28;11341;-80
2024/03/21 00:44:50;;;;;;;;;31.50;30.50;;;;;;;;5054504;28;10621;-81
2024/03/21 00:47:17;;;;;;;;;34.00;32.00;;;;;;;;5066803;28;10517;-81
2024/03/21 00:49:45;;;;;;;;;30.25;30.25;;;;;;;;5069839;28;10710;-80
2024/03/21 00:52:12;;;;;;;;;28.75;27.75;;;;;;;;5034811;28;10915;-80
2024/03/21 00:54:38;;;;;;;;;30.50;29.00;;;;;;;;5050639;28;10982;-79
2024/03/21 00:57:07;;;;;;;;;40.50;34.25;;;;;;;;5051433;28;11454;-79
2024/03/21 00:59:34;;;;;;;;;27.25;27.25;;;;;;;;5051046;28;10834;-81
2024/03/21 01:02:01;;;;;;;;;29.25;26.50;;;;;;;;5050596;28;10710;-80
2024/03/21 01:04:27;;;;;;;;;32.00;32.00;;;;;;;;5051495;28;10543;-81
2024/03/21 01:06:56;;;;;;;;;30.50;28.75;;;;;;;;5051086;28;10596;-80
2024/03/21 01:09:22;;;;;;;;;29.75;28.75;;;;;;;;5050971;28;10524;-80
2024/03/21 01:11:49;;;;;;;;;29.75;29.75;;;;;;;;5048975;28;10707;-80
2024/03/21 01:14:15;;;;;;;;;33.25;30.50;;;;;;;;5051163;28;10587;-80
2024/03/21 01:16:43;;;;;;;;;28.00;28.00;;;;;;;;5051171;28;10828;-79
2024/03/21 01:19:09;;;;;;;;;34.25;30.50;;;;;;;;5051809;28;10769;-78
2024/03/21 01:21:36;;;;;;;;;24.75;20.25;;;;;;;;5052848;28;10836;-81
2024/03/21 01:24:06;;;;;;;;;36.75;35.25;;;;;;;;5054966;28;10748;-80
2024/03/21 01:26:34;;;;;;;;;36.50;34.75;;;;;;;;5055082;28;10906;-80
2024/03/21 01:29:01;;;;;;;;;39.25;35.25;;;;;;;;5044536;28;11239;-81
2024/03/21 01:31:27;;;;;;;;;36.25;34.75;;;;;;;;5055880;28;10976;-81
2024/03/21 01:33:55;;;;;;;;;38.50;34.75;;;;;;;;5056063;28;10958;-83
2024/03/21 01:36:21;;;;;;;;;41.25;35.00;;;;;;;;5055159;28;11126;-80
2024/03/21 01:38:49;;;;;;;;;39.50;34.75;;;;;;;;5056441;28;11020;-82
2024/03/21 01:41:16;;;;;;;;;32.25;32.00;;;;;;;;5051522;28;11181;-83
2024/03/21 01:43:44;;;;;;;;;31.50;31.25;;;;;;;;5050762;28;10858;-80
2024/03/21 01:46:18;;;;;;;;;40.50;33.50;;;;;;;;5050705;28;11090;-82
2024/03/21 01:48:48;;;;;;;;;35.50;34.00;;;;;;;;5051050;28;10847;-84
2024/03/21 01:51:17;;;;;;;;;36.50;34.00;;;;;;;;5050836;28;10991;-83
2024/03/21 01:53:45;;;;;;;;;44.00;38.00;;;;;;;;5050919;28;10594;-84
2024/03/21 01:56:11;;;;;;;;;41.25;36.75;;;;;;;;5050116;28;10746;-84
2024/03/21 01:58:43;;;;;;;;;43.25;38.00;;;;;;;;5050470;28;10652;-84
2024/03/21 02:01:20;;;;;;;;;36.50;34.50;;;;;;;;5049072;28;11314;-83
2024/03/21 02:03:50;;;;;;;;;38.00;34.25;;;;;;;;5050460;28;10674;-84
2024/03/21 02:06:16;;;;;;;;;38.00;35.00;;;;;;;;5050619;28;10427;-83
2024/03/21 02:08:43;;;;;;;;;44.50;38.00;;;;;;;;5051737;28;10451;-84
2024/03/21 02:11:12;;;;;;;;;37.25;35.25;;;;;;;;5053860;28;11493;-80
2024/03/21 02:13:40;;;;;;;;;43.50;37.50;;;;;;;;5054357;28;10443;-80
2024/03/21 02:16:07;;;;;;;;;41.00;34.50;;;;;;;;5052701;28;10614;-81
2024/03/21 02:18:34;;;;;;;;;41.75;35.25;;;;;;;;5049439;28;10697;-79
2024/03/21 02:21:04;;;;;;;;;36.00;34.50;;;;;;;;5050067;28;11429;-79
2024/03/21 02:23:32;;;;;;;;;29.25;29.00;;;;;;;;5049326;28;10609;-80
2024/03/21 02:25:58;;;;;;;;;36.25;32.25;;;;;;;;5049737;28;10389;-80
2024/03/21 02:28:26;;;;;;;;;36.75;32.75;;;;;;;;5049110;28;11358;-79
2024/03/21 02:30:52;;;;;;;;;36.75;34.50;;;;;;;;5049153;28;10481;-81
2024/03/21 02:33:19;;;;;;;;;34.75;32.50;;;;;;;;5048956;28;10775;-80
2024/03/21 02:35:46;;;;;;;;;28.50;28.50;;;;;;;;5049531;28;10770;-80
2024/03/21 02:38:13;;;;;;;;;21.50;21.50;;;;;;;;5049274;28;10652;-80
2024/03/21 02:40:42;;;;;;;;;25.25;25.25;;;;;;;;5049586;28;10515;-81
2024/03/21 02:43:09;;;;;;;;;30.25;27.75;;;;;;;;5049374;28;10443;-80
2024/03/21 02:45:36;;;;;;;;;33.75;32.25;;;;;;;;5049757;28;10796;-80
2024/03/21 02:48:03;;;;;;;;;35.00;30.75;;;;;;;;5049368;28;10584;-81
2024/03/21 02:50:30;;;;;;;;;34.50;29.75;;;;;;;;5031274;28;10903;-80
2024/03/21 02:52:57;;;;;;;;;34.50;33.75;;;;;;;;5049250;28;10748;-79
2024/03/21 02:55:24;;;;;;;;;32.25;30.75;;;;;;;;5049108;28;11260;-81
2024/03/21 02:57:52;;;;;;;;;34.75;32.00;;;;;;;;5048889;28;11240;-80
2024/03/21 03:00:19;;;;;;;;;39.00;35.00;;;;;;;;5048331;28;11300;-80
2024/03/21 03:02:45;;;;;;;;;38.75;34.50;;;;;;;;5048197;28;11239;-80
2024/03/21 03:05:13;;;;;;;;;39.00;36.00;;;;;;;;5050248;28;12352;-81
2024/03/21 03:07:39;;;;;;;;;37.00;35.25;;;;;;;;5051547;28;12171;-81
2024/03/21 03:10:07;;;;;;;;;41.75;36.75;;;;;;;;5052439;28;11300;-81
2024/03/21 03:12:34;;;;;;;;;36.75;34.00;;;;;;;;5053692;28;11607;-83
2024/03/21 03:15:05;;;;;;;;;36.50;35.50;;;;;;;;5054671;28;11610;-82
2024/03/21 03:17:31;;;;;;;;;34.75;32.50;;;;;;;;5058322;28;11535;-80
2024/03/21 03:19:58;;;;;;;;;34.00;33.75;;;;;;;;5056446;28;11165;-82
2024/03/21 03:22:24;;;;;;;;;35.25;26.25;;;;;;;;5058450;28;11319;-79
2024/03/21 03:24:52;;;;;;;;;36.00;35.00;;;;;;;;5056043;28;11233;-80
2024/03/21 03:27:18;;;;;;;;;39.50;35.25;;;;;;;;5058155;28;11406;-80
2024/03/21 03:29:47;;;;;;;;;33.75;32.00;;;;;;;;5054700;28;12418;-81
2024/03/21 03:32:15;;;;;;;;;33.75;33.50;;;;;;;;5049453;28;12068;-82
2024/03/21 03:37:27;;;;;;;;;41.25;36.75;;;;;;;;5049186;28;11431;-83
2024/03/21 03:39:54;;;;;;;;;35.75;33.75;;;;;;;;5049271;28;12281;-82
2024/03/21 03:42:21;;;;;;;;;45.25;36.00;;;;;;;;5048528;28;11510;-82
2024/03/21 03:44:48;;;;;;;;;50.00;41.75;;;;;;;;5049193;28;11499;-83
2024/03/21 03:47:16;;;;;;;;;43.00;38.00;;;;;;;;5048547;28;11521;-81
2024/03/21 03:49:43;;;;;;;;;44.75;40.00;;;;;;;;5048501;28;11508;-81
2024/03/21 03:52:10;;;;;;;;;43.00;37.25;;;;;;;;5050213;28;11476;-81
2024/03/21 03:54:36;;;;;;;;;38.75;36.25;;;;;;;;5052939;28;12304;-80
2024/03/21 03:57:04;;;;;;;;;48.25;38.50;;;;;;;;5053204;28;11583;-81
2024/03/21 03:59:30;;;;;;;;;42.50;37.75;;;;;;;;5054430;28;11494;-80
2024/03/21 04:01:57;;;;;;;;;36.25;34.00;;;;;;;;5055470;28;11475;-80
2024/03/21 04:04:25;;;;;;;;;50.25;38.00;;;;;;;;5053075;28;11512;-79
2024/03/21 04:06:54;;;;;;;;;45.00;37.75;;;;;;;;5054265;28;12282;-80
2024/03/21 04:09:20;;;;;;;;;36.25;34.50;;;;;;;;5052449;28;11518;-82
2024/03/21 04:11:47;;;;;;;;;37.25;28.50;;;;;;;;5052520;28;11638;-81
2024/03/21 04:14:13;;;;;;;;;37.50;35.25;;;;;;;;5052422;28;11357;-80
2024/03/21 04:16:40;;;;;;;;;42.50;37.25;;;;;;;;5052922;28;11622;-81
2024/03/21 04:19:07;;;;;;;;;42.25;37.00;;;;;;;;5051633;28;11541;-81
2024/03/21 04:21:35;;;;;;;;;42.75;36.50;;;;;;;;5051951;28;12300;-81
2024/03/21 04:24:02;;;;;;;;;40.50;34.00;;;;;;;;5051375;28;11671;-80
2024/03/21 04:26:29;;;;;;;;;44.75;37.25;;;;;;;;5051790;28;11566;-80
2024/03/21 04:28:56;;;;;;;;;35.25;34.25;;;;;;;;5051271;28;11512;-80
2024/03/21 04:31:23;;;;;;;;;35.25;34.50;;;;;;;;5051952;28;11254;-80
2024/03/21 04:33:50;;;;;;;;;34.25;33.25;;;;;;;;5051274;28;11638;-80
2024/03/21 04:36:16;;;;;;;;;41.75;34.50;;;;;;;;5051839;28;11435;-80
2024/03/21 04:38:45;;;;;;;;;31.75;31.75;;;;;;;;5052073;28;11578;-84
2024/03/21 04:41:13;;;;;;;;;36.75;34.25;;;;;;;;5053142;28;11211;-83
2024/03/21 04:43:40;;;;;;;;;31.50;31.00;;;;;;;;5050703;28;11573;-83
2024/03/21 04:46:07;;;;;;;;;39.75;33.00;;;;;;;;5051963;28;11236;-84
2024/03/21 04:48:34;;;;;;;;;32.75;32.00;;;;;;;;5050730;28;11154;-81
2024/03/21 04:51:01;;;;;;;;;36.75;33.50;;;;;;;;5051261;28;11327;-82
2024/03/21 04:53:30;;;;;;;;;31.50;31.50;;;;;;;;5051248;28;11286;-82
2024/03/21 04:56:02;;;;;;;;;31.00;29.75;;;;;;;;5051425;28;11251;-80
2024/03/21 04:58:29;;;;;;;;;34.25;31.00;;;;;;;;5051945;28;11218;-82
2024/03/21 05:00:56;;;;;;;;;36.25;34.50;;;;;;;;5056661;28;11030;-82
2024/03/21 05:03:23;;;;;;;;;43.00;38.25;;;;;;;;5056374;28;11477;-80
2024/03/21 05:05:49;;;;;;;;;34.00;33.00;;;;;;;;5055486;28;11597;-81
2024/03/21 05:08:17;;;;;;;;;35.75;33.75;;;;;;;;5055343;28;11535;-82
2024/03/21 05:10:43;;;;;;;;;34.75;34.00;;;;;;;;5056497;28;11268;-81
2024/03/21 05:13:13;;;;;;;;;32.75;32.25;;;;;;;;5055717;28;11287;-80
2024/03/21 05:15:47;;;;;;;;;34.00;33.25;;;;;;;;5055677;28;11392;-81
2024/03/21 05:18:15;;;;;;;;;26.00;26.00;;;;;;;;5053839;28;11223;-81
2024/03/21 05:20:44;;;;;;;;;35.50;33.25;;;;;;;;5050962;28;11907;-81
2024/03/21 05:23:11;;;;;;;;;26.50;26.00;;;;;;;;5049953;28;12060;-82
2024/03/21 05:25:38;;;;;;;;;31.00;30.00;;;;;;;;5050082;28;11328;-81
2024/03/21 05:28:06;;;;;;;;;33.00;30.00;;;;;;;;5050255;28;11362;-80
2024/03/21 05:30:33;;;;;;;;;30.75;30.75;;;;;;;;5050066;28;12237;-81
2024/03/21 05:33:03;;;;;;;;;25.50;24.75;;;;;;;;5050133;28;11499;-81
2024/03/21 05:35:30;;;;;;;;;32.25;29.00;;;;;;;;5049915;28;11561;-81
2024/03/21 05:37:59;;;;;;;;;25.75;24.00;;;;;;;;5050048;28;11328;-83
2024/03/21 05:40:25;;;;;;;;;30.50;30.50;;;;;;;;5050066;28;12168;-78
2024/03/21 05:42:53;;;;;;;;;33.75;32.75;;;;;;;;5050607;28;11558;-82
2024/03/21 05:45:19;;;;;;;;;25.75;23.50;;;;;;;;5049972;28;11509;-79
2024/03/21 05:47:48;;;;;;;;;35.75;32.00;;;;;;;;5051951;28;11337;-80
2024/03/21 05:50:17;;;;;;;;;37.00;30.00;;;;;;;;5054389;28;12791;-79
2024/03/21 05:52:44;;;;;;;;;28.25;28.25;;;;;;;;5057640;28;11529;-77
2024/03/21 05:55:10;;;;;;;;;28.50;26.75;;;;;;;;5062717;28;11297;-76
2024/03/21 05:57:38;;;;;;;;;25.75;23.25;;;;;;;;5053276;28;11553;-79
2024/03/21 06:00:06;;;;;;;;;34.00;29.25;;;;;;;;5049793;28;12195;-80
2024/03/21 06:02:35;;;;;;;;;28.25;28.25;;;;;;;;5049480;28;11567;-81
2024/03/21 06:05:04;;;;;;;;;26.00;24.50;;;;;;;;5046673;28;12346;-82
2024/03/21 06:07:31;;;;;;;;;34.00;32.50;;;;;;;;5049472;28;11491;-79
2024/03/21 06:09:57;;;;;;;;;30.50;30.50;;;;;;;;5049409;28;11468;-85
2024/03/21 06:12:25;;;;;;;;;30.75;27.25;;;;;;;;5049947;28;11499;-78
2024/03/21 06:14:51;;;;;;;;;28.75;28.75;;;;;;;;5049170;28;11238;-80
2024/03/21 06:17:18;;;;;;;;;31.25;29.25;;;;;;;;5043282;28;11358;-83
2024/03/21 06:19:46;;;;;;;;;30.00;30.00;;;;;;;;5049456;28;11248;-79
2024/03/21 06:22:15;;;;;;;;;32.25;32.25;;;;;;;;5048781;28;11457;-79
2024/03/21 06:24:41;;;;;;;;;31.25;30.00;;;;;;;;5050580;28;11504;-79
2024/03/21 06:27:09;;;;;;;;;32.50;29.75;;;;;;;;5053372;28;11491;-80
2024/03/21 06:29:35;;;;;;;;;32.00;28.50;;;;;;;;5051331;28;11525;-80
2024/03/21 06:32:05;;;;;;;;;36.25;33.50;;;;;;;;5046431;28;11622;-81
2024/03/21 06:34:31;;;;;;;;;41.00;36.25;;;;;;;;5049179;28;11503;-80
2024/03/21 06:36:59;;;;;;;;;35.00;32.50;;;;;;;;5049066;28;11589;-79
2024/03/21 06:39:26;;;;;;;;;42.75;38.50;;;;;;;;5049644;28;11493;-80
2024/03/21 06:41:53;;;;;;;;;30.00;28.25;;;;;;;;5049690;28;11489;-82
2024/03/21 06:44:20;;;;;;;;;40.50;37.00;;;;;;;;5049593;28;11637;-79
2024/03/21 06:46:47;;;;;;;;;31.25;29.50;;;;;;;;5050515;28;11633;-82
2024/03/21 06:49:13;;;;;;;;;36.50;33.50;;;;;;;;5051647;28;11580;-78
2024/03/21 06:51:40;;;;;;;;;43.25;35.75;;;;;;;;5053367;28;11590;-79
2024/03/21 06:54:09;;;;;;;;;33.50;31.00;;;;;;;;5054200;28;11582;-82
2024/03/21 06:56:38;;;;;;;;;34.50;31.75;;;;;;;;5054880;28;11588;-79
2024/03/21 06:59:04;;;;;;;;;39.00;33.75;;;;;;;;5054477;28;11413;-82
2024/03/21 07:01:32;;;;;;;;;39.50;36.25;;;;;;;;5054005;28;11263;-82
2024/03/21 07:03:58;;;;;;;;;38.00;33.25;;;;;;;;5054624;28;12403;-80
2024/03/21 07:06:25;;;;;;;;;46.00;39.75;;;;;;;;5054460;28;11307;-84
2024/03/21 07:08:52;;;;;;;;;38.25;36.25;;;;;;;;5050199;28;12347;-77
2024/03/21 07:11:19;;;;;;;;;49.00;39.25;;;;;;;;5048049;28;11552;-79
2024/03/21 07:13:50;;;;;;;;;47.50;39.00;;;;;;;;5052850;28;11491;-83
2024/03/21 07:16:18;;;;;;;;;48.25;41.25;;;;;;;;5047996;28;11517;-81
2024/03/21 07:18:44;;;;;;;;;46.00;39.75;;;;;;;;5049022;28;11498;-81
2024/03/21 07:21:19;;;;;;;;;49.25;40.75;;;;;;;;5047953;28;11481;-81
2024/03/21 07:23:48;;;;;;;;;47.25;40.50;;;;;;;;5048745;28;11500;-80
2024/03/21 07:26:21;;;;;;;;;50.50;40.50;;;;;;;;5048754;28;11480;-80
2024/03/21 07:28:48;;;;;;;;;39.50;36.50;;;;;;;;5047534;28;11769;-79
2024/03/21 07:31:17;;;;;;;;;45.00;38.75;;;;;;;;5046222;28;12433;-82
2024/03/21 07:33:45;;;;;;;;;52.00;42.00;;;;;;;;5048332;28;11448;-79
2024/03/21 07:36:13;;;;;;;;;49.75;42.50;;;;;;;;5049956;28;11497;-80
2024/03/21 07:38:42;;;;;;;;;53.25;42.50;;;;;;;;5051037;28;11224;-83
2024/03/21 07:41:12;;;;;;;;;53.75;43.00;;;;;;;;5051807;28;11150;-79
2024/03/21 07:43:40;;;;;;;;;50.75;40.25;;;;;;;;5050879;28;11315;-78
2024/03/21 07:46:09;;;;;;;;;49.00;39.00;;;;;;;;5048663;28;11216;-79
2024/03/21 07:48:35;;;;;;;;;51.00;42.50;;;;;;;;5047636;28;11213;-79
2024/03/21 07:51:02;;;;;;;;;46.00;40.00;;;;;;;;5047384;28;11227;-78
2024/03/21 07:53:36;;;;;;;;;53.75;46.00;;;;;;;;5047819;28;11114;-82
2024/03/21 07:56:05;;;;;;;;;49.75;41.25;;;;;;;;5047882;28;11292;-79
2024/03/21 07:58:33;;;;;;;;;52.50;42.75;;;;;;;;5047779;28;11022;-80
2024/03/21 08:01:00;;;;;;;;;51.25;40.75;;;;;;;;5047401;28;11257;-83
2024/03/21 08:03:30;;;;;;;;;45.00;37.75;;;;;;;;5048592;28;11285;-80
2024/03/21 08:06:03;;;;;;;;;53.50;43.00;;;;;;;;5047776;28;11005;-83
2024/03/21 08:08:32;;;;;;;;;52.75;43.50;;;;;;;;5048581;28;10928;-83
2024/03/21 08:10:59;;;;;;;;;48.25;41.50;;;;;;;;5047428;28;11242;-79
2024/03/21 08:13:26;;;;;;;;;51.50;43.50;;;;;;;;5048393;28;10878;-81
2024/03/21 08:15:55;;;;;;;;;51.75;42.75;;;;;;;;5048028;28;11537;-82
2024/03/21 08:18:23;;;;;;;;;55.50;45.25;;;;;;;;5048545;28;10990;-83
2024/03/21 08:20:53;;;;;;;;;55.75;45.75;;;;;;;;5048195;28;10999;-82
2024/03/21 08:23:20;;;;;;;;;52.50;42.25;;;;;;;;5048934;28;10926;-80
2024/03/21 08:25:48;;;;;;;;;56.25;44.00;;;;;;;;5059430;28;10697;-78
2024/03/21 08:28:14;;;;;;;;;53.75;43.50;;;;;;;;5052903;28;11599;-81
2024/03/21 08:30:44;;;;;;;;;54.25;41.25;;;;;;;;5048382;28;10740;-79
2024/03/21 08:33:10;;;;;;;;;53.25;46.00;;;;;;;;5048608;28;10631;-78
2024/03/21 08:35:38;;;;;;;;;55.00;44.00;;;;;;;;5045884;28;10649;-79
2024/03/21 08:38:05;;;;;;;;;59.75;47.00;;;;;;;;5052382;28;10605;-81
2024/03/21 08:40:35;;;;;;;;;52.50;43.50;;;;;;;;5053225;28;10414;-81
2024/03/21 08:43:02;;;;;;;;;50.25;43.00;;;;;;;;5056943;28;10500;-81
2024/03/21 08:45:30;;;;;;;;;58.75;45.00;;;;;;;;5057316;28;10468;-80
2024/03/21 08:47:57;;;;;;;;;50.50;42.00;;;;;;;;5057690;28;10455;-81
2024/03/21 08:50:25;;;;;;;;;54.75;44.00;;;;;;;;5057527;28;10279;-79
2024/03/21 08:52:51;;;;;;;;;52.75;43.25;;;;;;;;5057459;28;10440;-80
2024/03/21 08:55:21;;;;;;;;;50.00;41.25;;;;;;;;5056992;28;10212;-82
2024/03/21 08:57:52;;;;;;;;;49.25;42.00;;;;;;;;5052854;28;10130;-78
2024/03/21 09:00:22;;;;;;;;;51.50;42.25;;;;;;;;5051444;28;9980;-79
2024/03/21 09:02:48;;;;;;;;;53.25;45.00;;;;;;;;5050915;28;10046;-79
2024/03/21 09:05:18;;;;;;;;;49.25;42.25;;;;;;;;5051567;28;9879;-78
2024/03/21 09:08:05;;;;;;;;;56.25;45.50;;;;;;;;5048346;28;10797;-79
2024/03/21 09:10:34;;;;;;;;;52.00;44.00;;;;;;;;5045728;28;9952;-78
2024/03/21 09:13:00;;;;;;;;;52.50;43.75;;;;;;;;5050720;28;9904;-77
2024/03/21 09:15:29;;;;;;;;;48.75;41.00;;;;;;;;5050566;28;9972;-78
2024/03/21 09:17:56;;;;;;;;;54.00;44.00;;;;;;;;5050711;28;9891;-80
2024/03/21 09:20:24;;;;;;;;;50.00;41.00;;;;;;;;5050846;28;9959;-80
2024/03/21 09:22:50;;;;;;;;;52.50;41.25;;;;;;;;5052668;28;9813;-80
2024/03/21 09:25:17;;;;;;;;;47.67;39.67;;;;;;;;5053125;28;9615;-79
2024/03/21 09:27:45;;;;;;;;;50.00;40.33;;;;;;;;5053270;28;9394;-79
2024/03/21 09:30:13;;;;;;;;;50.67;40.67;;;;;;;;5051533;28;9404;-78
2024/03/21 09:32:39;;;;;;;;;53.50;44.25;;;;;;;;5051066;28;9409;-80
2024/03/21 09:35:09;;;;;;;;;50.67;41.00;;;;;;;;5049371;28;9504;-79
2024/03/21 09:37:35;;;;;;;;;46.67;39.00;;;;;;;;5050064;28;9327;-79
2024/03/21 09:40:04;;;;;;;;;52.00;43.00;;;;;;;;5049432;28;9197;-79
2024/03/21 09:42:32;;;;;;;;;51.33;41.67;;;;;;;;5050244;28;10077;-78
2024/03/21 09:45:03;;;;;;;;;55.00;43.33;;;;;;;;5049310;28;9260;-79
2024/03/21 09:47:31;;;;;;;;;45.00;38.67;;;;;;;;5050139;28;9224;-81
2024/03/21 09:49:59;;;;;;;;;47.67;40.67;;;;;;;;5048228;28;9158;-79
2024/03/21 09:52:26;;;;;;;;;45.00;39.00;;;;;;;;5049538;28;9094;-79
2024/03/21 09:54:54;;;;;;;;;48.67;40.00;;;;;;;;5051709;28;8984;-80
2024/03/21 09:57:21;;;;;;;;;44.75;38.75;;;;;;;;5049931;28;8959;-78
2024/03/21 09:59:48;;;;;;;;;45.75;38.75;;;;;;;;5049325;28;8908;-80
2024/03/21 10:02:18;;;;;;;;;48.50;41.00;;;;;;;;5048861;28;8803;-79
2024/03/21 10:04:46;;;;;;;;;46.50;40.00;;;;;;;;5048994;28;8866;-80
2024/03/21 10:07:20;;;;;;;;;53.50;43.00;;;;;;;;5049850;28;8850;-80
2024/03/21 10:09:52;;;;;;;;;54.00;43.50;;;;;;;;5049743;28;8981;-83
2024/03/21 10:12:21;;;;;;;;;48.75;39.75;;;;;;;;5048820;28;8866;-79
2024/03/21 10:14:48;;;;;;;;;49.25;40.50;;;;;;;;5050297;28;8875;-81
2024/03/21 10:17:16;;;;;;;;;42.00;34.75;;;;;;;;5048993;28;9633;-79
2024/03/21 10:19:43;;;;;;;;;49.75;39.75;;;;;;;;5049564;28;8863;-81
2024/03/21 10:22:17;;;;;;;;;48.25;40.25;;;;;;;;5048787;28;8863;-82
2024/03/21 10:24:43;;;;;;;;;50.25;41.25;;;;;;;;5052584;28;8849;-79
2024/03/21 10:27:14;;;;;;;;;48.25;39.00;;;;;;;;5053092;28;8854;-82
2024/03/21 10:29:41;;;;;;;;;46.75;40.25;;;;;;;;5054477;28;8865;-83
2024/03/21 10:32:18;;;;;;;;;45.67;37.33;;;;;;;;5054083;28;8822;-82
2024/03/21 10:34:48;;;;;;;;;46.75;38.75;;;;;;;;5056612;28;8892;-80
2024/03/21 10:37:16;;;;;;;;;48.25;40.25;;;;;;;;5054867;28;8965;-83
2024/03/21 10:39:42;;;;;;;;;45.75;38.75;;;;;;;;5055849;28;8996;-82
2024/03/21 10:42:19;;;;;;;;;50.50;42.00;;;;;;;;5055166;28;8910;-84
2024/03/21 10:44:47;;;;;;;;;48.75;39.75;;;;;;;;5052007;28;8928;-79
2024/03/21 10:47:15;;;;;;;;;52.25;43.75;;;;;;;;5049414;28;8922;-79
2024/03/21 10:49:43;;;;;;;;;47.50;40.00;;;;;;;;5048739;28;8878;-79
2024/03/21 10:52:14;;;;;;;;;46.50;38.75;;;;;;;;5050966;28;8854;-78
2024/03/21 10:54:41;;;;;;;;;49.50;40.25;;;;;;;;5056164;28;8968;-80
2024/03/21 10:57:16;;;;;;;;;47.25;39.25;;;;;;;;5041052;28;8901;-85
2024/03/21 10:59:42;;;;;;;;;49.75;40.75;;;;;;;;5049393;28;8889;-82
2024/03/21 11:02:14;;;;;;;;;44.50;37.75;;;;;;;;5042907;28;8797;-80
2024/03/21 11:04:42;;;;;;;;;45.50;38.50;;;;;;;;5047046;28;8851;-82
2024/03/21 11:07:17;;;;;;;;;44.75;37.75;;;;;;;;5049107;28;8838;-79
2024/03/21 11:09:43;;;;;;;;;42.25;35.75;;;;;;;;5049054;28;8869;-80
2024/03/21 11:12:13;;;;;;;;;43.25;37.75;;;;;;;;5049552;28;8870;-77
2024/03/21 11:14:39;;;;;;;;;47.00;39.00;;;;;;;;5050175;28;8839;-82
2024/03/21 11:17:07;;;;;;;;;46.00;39.25;;;;;;;;5059582;28;8965;-81
2024/03/21 11:19:35;;;;;;;;;45.50;39.00;;;;;;;;5051497;28;8885;-79
2024/03/21 11:22:04;;;;;;;;;41.50;35.25;;;;;;;;5048200;28;8950;-80
2024/03/21 11:24:30;;;;;;;;;47.25;39.25;;;;;;;;5047908;28;9655;-80
2024/03/21 11:26:59;;;;;;;;;35.25;32.50;;;;;;;;5047840;28;8834;-81
2024/03/21 11:29:25;;;;;;;;;45.00;34.75;;;;;;;;5047972;28;8843;-81
2024/03/21 11:31:52;;;;;;;;;40.50;35.50;;;;;;;;5047123;28;8884;-82
2024/03/21 11:34:19;;;;;;;;;44.25;36.25;;;;;;;;5047756;28;8847;-85
2024/03/21 11:36:46;;;;;;;;;46.00;36.25;;;;;;;;5047329;28;8892;-81
2024/03/21 11:39:14;;;;;;;;;42.00;36.25;;;;;;;;5048099;28;8854;-82
2024/03/21 11:41:42;;;;;;;;;41.25;34.50;;;;;;;;5048167;28;9288;-81
2024/03/21 11:44:13;;;;;;;;;43.00;34.60;;;;;;;;5048065;28;8847;-79
2024/03/21 11:46:40;;;;;;;;;38.50;31.75;;;;;;;;5048071;28;8866;-81
2024/03/21 11:49:09;;;;;;;;;43.60;35.60;;;;;;;;5047657;28;8886;-81
2024/03/21 11:51:38;;;;;;;;;35.20;31.60;;;;;;;;5047810;28;9592;-81
2024/03/21 11:54:05;;;;;;;;;28.20;27.40;;;;;;;;5051331;28;8965;-82
2024/03/21 11:56:35;;;;;;;;;40.80;34.80;;;;;;;;5047606;28;8846;-80
2024/03/21 11:59:01;;;;;;;;;38.00;33.60;;;;;;;;5049510;28;8901;-81
2024/03/21 12:01:29;;;;;;;;;36.40;33.40;;;;;;;;5040738;28;8841;-80
2024/03/21 12:03:55;;;;;;;;;32.80;30.80;;;;;;;;5048038;28;8861;-81
2024/03/21 12:06:23;;;;;;;;;40.80;35.00;;;;;;;;5047792;28;8862;-81
2024/03/21 12:08:51;;;;;;;;;46.25;37.00;;;;;;;;5048957;28;8973;-81
2024/03/21 12:11:19;;;;;;;;;44.25;36.50;;;;;;;;5049157;28;8858;-80
2024/03/21 12:13:48;;;;;;;;;37.50;32.50;;;;;;;;5053559;28;8866;-85
2024/03/21 12:16:17;;;;;;;;;46.25;37.75;;;;;;;;5054542;28;8854;-78
2024/03/21 12:18:44;;;;;;;;;41.75;36.50;;;;;;;;5056580;28;8858;-79
2024/03/21 12:21:16;;;;;;;;;43.50;35.00;;;;;;;;5057859;28;9110;-79
2024/03/21 12:23:42;;;;;;;;;41.20;35.60;;;;;;;;5058516;28;8920;-78
2024/03/21 12:26:11;;;;;;;;;47.25;39.25;;;;;;;;5057884;28;8839;-85
2024/03/21 12:28:37;;;;;;;;;42.60;37.00;;;;;;;;5058172;28;8981;-82
2024/03/21 12:31:07;;;;;;;;;39.00;33.80;;;;;;;;5057431;28;8839;-80
2024/03/21 12:33:33;;;;;;;;;40.80;34.00;;;;;;;;5054262;28;8863;-81
2024/03/21 12:36:00;;;;;;;;;42.00;33.80;;;;;;;;5051884;28;9657;-83
2024/03/21 12:38:29;;;;;;;;;37.00;32.20;;;;;;;;5050053;28;8958;-80
2024/03/21 12:40:58;;;;;;;;;37.60;32.40;;;;;;;;5051192;28;8863;-78
2024/03/21 12:43:25;;;;;;;;;31.60;29.60;;;;;;;;5051024;28;8923;-82
2024/03/21 12:45:55;;;;;;;;;34.40;32.40;;;;;;;;5050953;28;8898;-79
2024/03/21 12:48:23;;;;;;;;;37.40;34.20;;;;;;;;5050803;28;8868;-79
2024/03/21 12:50:50;;;;;;;;;42.00;35.60;;;;;;;;5051160;28;8936;-80
2024/03/21 12:53:18;;;;;;;;;39.20;33.20;;;;;;;;5050945;28;8851;-80
2024/03/21 12:55:47;;;;;;;;;43.20;35.60;;;;;;;;5050998;28;8930;-79
2024/03/21 12:58:15;;;;;;;;;36.20;32.00;;;;;;;;5050258;28;8866;-78
2024/03/21 13:00:42;;;;;;;;;37.80;30.60;;;;;;;;5051829;28;8810;-83
2024/03/21 13:03:08;;;;;;;;;36.40;32.60;;;;;;;;5052122;28;8964;-80
2024/03/21 13:05:37;;;;;;;;;37.60;33.00;;;;;;;;5055128;28;9646;-79
2024/03/21 13:08:04;;;;;;;;;34.20;32.00;;;;;;;;5053201;28;9606;-79
2024/03/21 13:10:32;;;;;;;;;34.60;32.00;;;;;;;;5052603;28;8912;-80
2024/03/21 13:12:59;;;;;;;;;40.20;34.60;;;;;;;;5054696;28;8965;-78
2024/03/21 13:15:27;;;;;;;;;32.80;31.00;;;;;;;;5055934;28;8866;-80
2024/03/21 13:17:53;;;;;;;;;42.20;34.80;;;;;;;;5049836;28;8873;-79
2024/03/21 13:20:20;;;;;;;;;45.00;35.80;;;;;;;;5051646;28;8854;-78
2024/03/21 13:22:50;;;;;;;;;40.20;33.60;;;;;;;;5050577;28;8989;-77
2024/03/21 13:25:21;;;;;;;;;35.20;32.20;;;;;;;;5050630;28;8888;-77
2024/03/21 13:27:47;;;;;;;;;35.80;32.00;;;;;;;;5050925;28;8873;-78
2024/03/21 13:30:15;;;;;;;;;37.80;32.00;;;;;;;;5049492;28;8857;-80
2024/03/21 13:32:41;;;;;;;;;34.40;31.20;;;;;;;;5050616;28;8981;-80
2024/03/21 13:35:09;;;;;;;;;34.20;31.00;;;;;;;;5049898;28;8850;-78
2024/03/21 13:37:36;;;;;;;;;32.40;31.00;;;;;;;;5050868;28;8863;-82
2024/03/21 13:40:06;;;;;;;;;28.40;26.00;;;;;;;;5050818;28;8859;-79
2024/03/21 13:42:33;;;;;;;;;29.20;27.20;;;;;;;;5052549;28;8858;-82
2024/03/21 13:45:03;;;;;;;;;27.20;25.00;;;;;;;;5053581;28;8827;-78
2024/03/21 13:47:29;;;;;;;;;35.40;31.40;;;;;;;;5051059;28;9433;-79
2024/03/21 13:49:56;;;;;;;;;30.40;26.00;;;;;;;;5049990;28;8851;-81
2024/03/21 13:52:26;;;;;;;;;39.60;34.40;;;;;;;;5050524;28;8839;-78
2024/03/21 13:54:54;;;;;;;;;39.00;34.80;;;;;;;;5050676;28;9601;-80
2024/03/21 13:57:21;;;;;;;;;37.40;32.20;;;;;;;;5050383;28;8842;-79
2024/03/21 13:59:49;;;;;;;;;35.60;33.00;;;;;;;;5050608;28;8961;-81
2024/03/21 14:02:15;;;;;;;;;39.40;35.20;;;;;;;;5051899;28;8910;-81
2024/03/21 14:04:42;;;;;;;;;32.60;30.20;;;;;;;;5053402;28;8961;-81
2024/03/21 14:07:08;;;;;;;;;27.00;24.60;;;;;;;;5054766;28;8850;-80
2024/03/21 14:09:36;;;;;;;;;38.20;32.80;;;;;;;;5054810;28;8850;-80
2024/03/21 14:12:02;;;;;;;;;34.40;32.00;;;;;;;;5055596;28;8901;-82
2024/03/21 14:14:32;;;;;;;;;31.80;30.40;;;;;;;;5055349;28;8939;-83
2024/03/21 14:17:00;;;;;;;;;27.80;26.20;;;;;;;;5055004;28;8987;-81
2024/03/21 14:19:29;;;;;;;;;30.80;27.00;;;;;;;;5053111;28;8851;-80
2024/03/21 14:21:55;;;;;;;;;24.80;24.80;;;;;;;;5054695;28;8992;-79
2024/03/21 14:24:25;;;;;;;;;24.40;23.00;;;;;;;;5049817;28;8882;-78
2024/03/21 14:26:51;;;;;;;;;29.00;25.40;;;;;;;;5049740;28;8870;-80